Time;durP1;ratioP1;P1;durP2;ratioP2;P2;SDS_P1;SDS_P2;PMS_P1;PMS_P2;Temp;Humidity;BMP_temperature;BMP_pressure;BME280_temperature;BME280_humidity;BME280_pressure;Samples;Min_cycle;Max_cycle;Signal;HPM_P1;HPM_P2
2022/04/09 00:00:48;;;;;;;29.00;7.85;;;8.10;99.90;;;8.16;71.24;100384.09;5095025;28;20047;-63
2022/04/09 00:03:17;;;;;;;32.38;7.18;;;8.00;99.90;;;8.23;71.42;100398.97;5076973;28;20125;-64
2022/04/09 00:05:47;;;;;;;24.75;6.28;;;8.10;99.90;;;8.30;71.94;100392.88;5095250;28;20055;-63
2022/04/09 00:08:15;;;;;;;26.80;7.85;;;8.10;99.90;;;8.21;71.77;100377.03;5094877;28;20135;-63
2022/04/09 00:10:43;;;;;;;31.40;7.25;;;8.20;99.90;;;8.29;72.29;100404.28;5094814;28;20583;-63
2022/04/09 00:13:13;;;;;;;24.63;6.95;;;8.20;99.90;;;8.28;71.28;100396.38;5076810;28;20466;-64
2022/04/09 00:15:43;;;;;;;16.13;5.80;;;8.10;99.90;;;8.01;68.22;100403.41;5077306;28;20142;-63
2022/04/09 00:18:16;;;;;;;11.48;4.93;;;8.00;99.90;;;7.76;68.72;100409.59;5094683;28;20036;-63
2022/04/09 00:20:44;;;;;;;23.00;4.85;;;7.70;99.90;;;7.68;66.63;100413.13;5094864;28;20040;-63
2022/04/09 00:23:13;;;;;;;15.18;5.38;;;7.60;99.90;;;7.69;65.49;100414.88;5095027;28;20044;-63
2022/04/09 00:25:41;;;;;;;21.65;5.32;;;7.60;99.90;;;7.73;65.40;100420.13;5094948;28;20058;-63
2022/04/09 00:28:10;;;;;;;18.55;5.05;;;7.60;99.90;;;7.81;66.21;100418.38;5094932;28;20094;-63
2022/04/09 00:30:40;;;;;;;16.40;5.63;;;7.70;99.90;;;7.90;66.58;100413.09;5095000;28;20055;-63
2022/04/09 00:33:09;;;;;;;24.67;6.30;;;7.70;99.90;;;7.86;66.55;100424.50;5095227;28;20092;-63
2022/04/09 00:35:37;;;;;;;22.52;6.60;;;7.70;99.90;;;7.89;67.10;100428.91;5094702;28;20052;-63
2022/04/09 00:38:06;;;;;;;21.15;5.97;;;7.70;99.90;;;7.90;68.00;100434.16;5094966;28;20036;-63
2022/04/09 00:40:34;;;;;;;18.60;5.60;;;7.70;99.90;;;7.95;68.59;100439.44;5075950;28;20066;-64
2022/04/09 00:43:03;;;;;;;22.60;6.53;;;7.80;99.90;;;7.98;69.21;100461.38;5076887;28;20127;-63
2022/04/09 00:45:31;;;;;;;25.27;7.22;;;7.80;99.90;;;7.83;72.40;100457.84;5095006;28;20048;-63
2022/04/09 00:48:01;;;;;;;16.40;5.70;;;7.70;99.90;;;7.88;73.21;100454.34;5094953;28;20131;-63
2022/04/09 00:50:30;;;;;;;23.52;6.18;;;7.70;99.90;;;7.60;73.98;100463.13;5076964;28;20127;-63
2022/04/09 00:53:02;;;;;;;21.95;6.00;;;7.50;99.90;;;7.52;74.02;100462.22;5094971;28;20066;-63
2022/04/09 00:58:21;;;;;;;22.83;6.25;;;7.40;99.90;;;7.63;74.76;100471.00;5094205;28;20113;-63
2022/04/09 01:00:49;;;;;;;23.92;6.75;;;7.50;99.90;;;7.58;75.07;100471.88;5094161;28;20042;-63
2022/04/09 01:03:20;;;;;;;33.28;8.02;;;7.50;99.90;;;7.59;75.46;100471.88;5093991;28;20082;-63
2022/04/09 01:05:49;;;;;;;23.42;6.63;;;7.50;99.90;;;7.61;76.42;100470.13;5094250;28;20123;-63
2022/04/09 01:08:19;;;;;;;28.85;7.38;;;7.50;99.90;;;7.79;75.91;100479.78;5094165;28;20074;-63
2022/04/09 01:10:51;;;;;;;27.97;6.33;;;7.60;99.90;;;7.75;76.61;100491.19;5076085;28;20051;-63
2022/04/09 01:13:22;;;;;;;30.73;7.85;;;7.60;99.90;;;7.83;76.46;100487.72;5075707;28;20294;-63
2022/04/09 01:15:51;;;;;;;28.63;7.72;;;7.70;99.90;;;7.74;76.86;100487.69;5094120;28;20165;-63
2022/04/09 01:18:22;;;;;;;36.17;8.52;;;7.60;99.90;;;7.77;77.18;100492.97;5075605;28;20083;-63
2022/04/09 01:20:59;;;;;;;26.90;7.32;;;7.60;99.90;;;7.80;76.90;100508.75;5075572;28;20533;-63
2022/04/09 01:23:29;;;;;;;31.98;7.80;;;7.60;99.90;;;7.62;75.95;100477.16;5075539;28;20048;-63
2022/04/09 01:26:03;;;;;;;32.58;8.07;;;7.70;99.90;;;7.79;74.95;100514.91;5075666;28;20089;-62
2022/04/09 01:28:33;;;;;;;31.10;7.93;;;7.70;99.90;;;7.95;74.16;100532.47;5075074;28;20052;-63
2022/04/09 01:31:02;;;;;;;24.80;6.65;;;7.80;99.90;;;7.96;73.98;100543.88;5075404;28;20076;-63
2022/04/09 01:33:31;;;;;;;21.33;6.28;;;7.90;99.90;;;7.73;74.13;100542.97;5093524;28;20067;-62
2022/04/09 01:35:59;;;;;;;18.23;5.75;;;7.70;99.90;;;7.89;73.80;100552.66;5093437;28;20036;-63
2022/04/09 01:38:29;;;;;;;20.92;5.97;;;7.70;99.90;;;7.72;72.72;100546.50;5075318;28;20054;-62
2022/04/09 01:40:58;;;;;;;16.35;5.07;;;7.70;99.90;;;7.84;72.01;100551.78;5075046;28;20242;-62
2022/04/09 01:43:31;;;;;;;14.32;5.05;;;7.70;99.90;;;7.96;71.18;100550.03;5074975;28;20036;-62
2022/04/09 01:45:59;;;;;;;14.02;6.03;;;7.90;99.90;;;8.03;70.87;100553.56;5074952;28;20051;-63
2022/04/09 01:48:28;;;;;;;11.15;4.63;;;7.90;99.90;;;8.20;70.06;100546.53;5074862;28;20460;-63
2022/04/09 01:50:57;;;;;;;17.05;5.70;;;8.10;99.90;;;8.25;69.18;100546.53;5075065;28;20080;-63
2022/04/09 01:53:25;;;;;;;10.10;5.03;;;8.20;99.90;;;8.40;69.14;100557.94;5093044;28;20485;-63
2022/04/09 01:55:56;;;;;;;12.90;5.63;;;8.30;99.90;;;8.32;69.21;100556.22;5074641;28;20052;-63
2022/04/09 01:58:27;;;;;;;14.45;5.22;;;8.30;99.90;;;8.19;69.68;100568.47;5074366;28;20056;-63
2022/04/09 02:00:58;;;;;;;15.77;5.75;;;8.10;99.90;;;7.95;69.90;100568.47;5074613;28;20043;-63
2022/04/09 02:03:30;;;;;;;16.95;5.82;;;7.90;99.90;;;7.90;70.04;100572.81;5093109;28;20052;-63
2022/04/09 02:05:58;;;;;;;14.35;5.53;;;7.80;99.90;;;7.83;71.29;100581.59;5092532;28;20047;-63
2022/04/09 02:08:27;;;;;;;17.17;5.47;;;7.70;99.90;;;7.62;71.55;100577.19;5074441;28;20048;-63
2022/04/09 02:10:57;;;;;;;15.18;5.57;;;7.50;99.90;;;7.60;72.31;100578.03;5093066;28;20051;-62
2022/04/09 02:13:25;;;;;;;16.57;5.00;;;7.40;99.90;;;7.50;73.18;100576.25;5093011;28;20039;-63
2022/04/09 02:15:55;;;;;;;25.10;6.27;;;7.40;99.90;;;7.59;74.14;100586.81;5074421;28;20332;-62
2022/04/09 02:18:29;;;;;;;28.75;6.10;;;7.40;99.90;;;7.58;74.88;100585.94;5092797;28;20074;-63
2022/04/09 02:20:57;;;;;;;21.50;7.07;;;7.40;99.90;;;7.63;75.66;100578.91;5074254;28;20055;-62
2022/04/09 02:23:26;;;;;;;20.23;5.68;;;7.50;99.90;;;7.58;75.55;100588.56;5092206;28;20094;-62
2022/04/09 02:25:56;;;;;;;22.20;6.70;;;7.50;99.90;;;7.48;75.79;100581.50;5074094;28;20059;-63
2022/04/09 02:28:26;;;;;;;23.63;6.70;;;7.40;99.90;;;7.44;75.95;100592.91;5074127;28;20048;-63
2022/04/09 02:30:55;;;;;;;21.75;5.95;;;7.30;99.90;;;7.55;75.55;100592.94;5074197;28;20149;-63
2022/04/09 02:33:36;;;;;;;23.48;5.75;;;7.30;99.90;;;7.55;75.16;100596.44;5074074;28;20070;-62
2022/04/09 02:36:09;;;;;;;15.73;5.70;;;7.40;99.90;;;7.59;74.24;100608.72;5074263;28;20117;-62
2022/04/09 02:38:38;;;;;;;25.50;6.07;;;7.40;99.90;;;7.34;72.59;100575.31;5092028;28;20209;-63
2022/04/09 02:41:09;;;;;;;19.45;5.97;;;7.30;99.90;;;7.53;70.97;100599.97;5074119;28;20458;-63
2022/04/09 02:43:38;;;;;;;11.70;5.60;;;7.40;99.90;;;7.61;69.86;100612.25;5074018;28;20493;-62
2022/04/09 02:46:07;;;;;;;17.27;5.30;;;7.50;99.90;;;7.61;69.38;100614.88;5091836;28;20044;-62
2022/04/09 02:48:39;;;;;;;16.13;5.40;;;7.50;99.90;;;7.62;68.57;100602.59;5073838;28;20051;-63
2022/04/09 02:51:08;;;;;;;16.02;5.05;;;7.50;99.90;;;7.57;68.19;100607.84;5091781;28;20392;-63
2022/04/09 02:53:36;;;;;;;16.77;5.30;;;7.50;99.90;;;7.65;67.52;100619.28;5074039;28;20367;-63
2022/04/09 02:56:05;;;;;;;14.27;5.38;;;7.50;99.90;;;7.40;67.20;100559.56;5091932;28;20052;-63
2022/04/09 02:58:39;;;;;;;12.98;4.97;;;7.60;99.90;;;7.65;67.61;100592.97;5073596;28;20066;-63
2022/04/09 03:01:08;;;;;;;13.93;4.82;;;7.60;99.90;;;7.51;68.02;100568.34;5073927;28;20052;-62
2022/04/09 03:03:37;;;;;;;21.52;6.10;;;7.60;99.90;;;7.65;68.80;100623.66;5073446;28;20043;-63
2022/04/09 03:06:06;;;;;;;18.02;5.72;;;7.50;99.90;;;7.67;69.66;100625.44;5074069;28;20460;-63
2022/04/09 03:08:34;;;;;;;20.15;5.85;;;7.50;99.90;;;7.77;69.94;100621.06;5092073;28;20040;-62
2022/04/09 03:11:03;;;;;;;18.83;5.63;;;7.60;99.90;;;7.55;70.62;100604.31;5091706;28;20040;-63
2022/04/09 03:13:32;;;;;;;18.83;6.53;;;7.60;99.90;;;7.62;71.31;100621.91;5073801;28;20063;-63
2022/04/09 03:16:01;;;;;;;21.10;6.07;;;7.50;99.90;;;7.63;71.87;100636.81;5091982;28;20048;-63
2022/04/09 03:18:31;;;;;;;19.20;6.13;;;7.50;99.90;;;7.73;72.41;100638.63;5073886;28;20044;-62
2022/04/09 03:21:00;;;;;;;19.05;5.72;;;7.50;99.90;;;7.70;73.11;100633.34;5073621;28;20048;-62
2022/04/09 03:23:28;;;;;;;21.92;7.20;;;7.50;99.90;;;7.68;73.62;100645.63;5074073;28;20484;-62
2022/04/09 03:25:59;;;;;;;22.55;6.43;;;7.50;99.90;;;7.79;73.95;100641.28;5074002;28;20051;-64
2022/04/09 03:28:37;;;;;;;22.05;6.30;;;7.60;99.90;;;7.75;73.89;100651.78;5073938;28;20048;-63
2022/04/09 03:31:08;;;;;;;29.52;6.47;;;7.60;99.90;;;7.81;74.08;100650.06;5073931;28;20048;-63
2022/04/09 03:33:38;;;;;;;26.52;6.78;;;7.70;99.90;;;7.76;74.53;100643.03;5073936;28;20101;-63
2022/04/09 03:36:13;;;;;;;19.42;6.68;;;7.60;99.90;;;7.91;74.26;100648.31;5074106;28;20055;-63
2022/04/09 03:38:42;;;;;;;22.70;6.90;;;7.80;99.90;;;7.88;73.46;100662.34;5074019;28;20055;-63
2022/04/09 03:41:11;;;;;;;27.30;6.70;;;7.70;99.90;;;7.96;72.68;100655.34;5073873;28;20044;-63
2022/04/09 03:43:57;;;;;;;21.63;6.80;;;7.80;99.90;;;8.06;71.23;100662.41;5074258;28;20047;-63
2022/04/09 03:46:32;;;;;;;26.75;6.30;;;7.90;99.90;;;8.00;71.71;100677.31;5073536;28;20056;-64
2022/04/09 03:49:05;;;;;;;26.52;7.28;;;7.90;99.90;;;8.00;71.17;100665.03;5091998;28;20097;-63
2022/04/09 03:51:37;;;;;;;25.25;6.35;;;7.90;99.90;;;8.04;71.63;100672.06;5073585;28;20047;-63
2022/04/09 03:54:07;;;;;;;25.38;8.02;;;7.90;99.90;;;8.04;71.28;100672.06;5073536;28;20071;-64
2022/04/09 03:56:37;;;;;;;24.42;6.60;;;7.90;99.90;;;8.11;70.65;100678.19;5073241;28;20105;-63
2022/04/09 03:59:06;;;;;;;23.33;5.88;;;7.90;99.90;;;7.21;70.33;100573.50;5073282;28;20059;-63
2022/04/09 04:01:37;;;;;;;22.40;5.68;;;7.90;99.90;;;8.00;69.98;100680.81;5073331;28;20044;-63
2022/04/09 04:04:10;;;;;;;24.10;5.88;;;7.90;99.90;;;8.05;70.11;100684.34;5073274;28;20160;-63
2022/04/09 04:06:40;;;;;;;21.92;6.05;;;7.90;99.90;;;7.51;70.22;100583.28;5073224;28;20044;-63
2022/04/09 04:09:09;;;;;;;23.80;6.22;;;7.90;99.90;;;8.03;69.78;100690.50;5073253;28;20072;-63
2022/04/09 04:11:38;;;;;;;22.92;6.65;;;7.90;99.90;;;7.88;70.56;100695.69;5091510;28;20130;-63
2022/04/09 04:14:07;;;;;;;22.88;6.25;;;7.80;99.90;;;7.94;70.79;100701.88;5091166;28;20074;-63
2022/04/09 04:16:37;;;;;;;21.45;6.88;;;7.80;99.90;;;8.01;70.82;100718.59;5074819;28;20139;-63
2022/04/09 04:19:06;;;;;;;28.70;6.50;;;7.80;99.90;;;8.04;70.87;100702.78;5076987;28;20097;-63
2022/04/09 04:21:36;;;;;;;22.45;7.03;;;7.90;99.90;;;8.11;70.75;100702.78;5076610;28;20040;-63
2022/04/09 04:24:08;;;;;;;23.40;6.40;;;8.00;99.90;;;8.09;70.47;100722.97;5076532;28;20139;-63
2022/04/09 04:26:37;;;;;;;25.23;6.35;;;7.90;99.90;;;8.17;69.73;100721.25;5076479;28;20049;-63
2022/04/09 04:29:15;;;;;;;29.00;6.50;;;8.00;99.90;;;8.38;68.73;100724.88;5076426;28;20128;-64
2022/04/09 04:31:45;;;;;;;24.02;6.22;;;8.10;99.90;;;8.33;68.69;100729.22;5076033;28;20056;-64
2022/04/09 04:34:14;;;;;;;25.90;7.38;;;8.20;99.90;;;8.42;69.74;100742.44;5076450;28;20047;-63
2022/04/09 04:36:44;;;;;;;24.70;6.30;;;8.20;99.90;;;8.33;72.36;100743.28;5076699;28;20405;-63
2022/04/09 04:39:13;;;;;;;18.17;5.78;;;8.20;99.90;;;8.36;73.17;100742.44;5076141;28;20048;-63
2022/04/09 04:41:47;;;;;;;21.33;6.65;;;8.20;99.90;;;8.28;73.93;100745.03;5076271;28;20485;-63
2022/04/09 04:44:16;;;;;;;34.30;7.60;;;8.10;99.90;;;7.85;74.10;100672.88;5075736;28;20155;-63
2022/04/09 04:46:50;;;;;;;30.27;7.43;;;8.10;99.90;;;8.31;74.81;100749.41;5094441;28;20441;-64
2022/04/09 04:49:23;;;;;;;24.45;7.35;;;8.20;99.90;;;8.36;74.36;100747.69;5075973;28;20158;-64
2022/04/09 04:51:56;;;;;;;28.83;7.53;;;8.20;99.90;;;8.25;74.69;100745.03;5076163;28;20096;-64
2022/04/09 04:54:25;;;;;;;24.42;7.72;;;8.10;99.90;;;8.17;74.93;100754.63;5075956;28;20044;-63
2022/04/09 04:56:54;;;;;;;36.03;9.80;;;8.10;99.90;;;8.12;75.22;100754.63;5075922;28;20040;-64
2022/04/09 04:59:23;;;;;;;30.85;7.93;;;8.00;99.90;;;8.18;74.78;100753.75;5075665;28;20410;-65
2022/04/09 05:01:53;;;;;;;32.45;8.32;;;8.00;99.90;;;8.19;75.26;100756.38;5075828;28;19924;-64
2022/04/09 05:04:25;;;;;;;;;;;8.00;99.90;;;8.18;75.94;100759.91;5076322;28;20071;-64
2022/04/09 05:06:58;;;;;;;29.83;7.85;;;8.00;99.90;;;8.28;75.56;100765.22;5075768;28;20014;-65
2022/04/09 05:09:27;;;;;;;31.48;8.20;;;8.10;99.90;;;8.34;75.86;100771.41;5075712;28;20097;-66
2022/04/09 05:11:57;;;;;;;;;;;8.20;99.90;;;8.27;75.19;100772.25;5094434;28;20441;-64
2022/04/09 05:14:35;;;;;;;32.22;7.65;;;8.20;99.90;;;7.97;76.13;100769.47;5075844;28;19926;-64
2022/04/09 05:17:09;;;;;;;40.28;8.52;;;8.00;99.90;;;7.97;76.08;100774.75;5075757;28;20087;-64
2022/04/09 05:19:39;;;;;;;27.88;7.75;;;7.80;99.90;;;7.85;76.09;100774.69;5075327;28;20084;-64
2022/04/09 05:22:12;;;;;;;28.65;7.65;;;7.70;99.90;;;7.91;75.86;100790.50;5075692;28;20036;-64
2022/04/09 05:25:02;;;;;;;31.08;8.25;;;7.70;99.90;;;7.85;75.79;100794.00;5075507;28;20048;-65
2022/04/09 05:27:31;;;;;;;19.48;6.72;;;7.70;99.90;;;7.70;75.00;100807.09;5074623;28;20054;-64
2022/04/09 05:30:05;;;;;;;32.53;7.55;;;7.70;99.90;;;7.74;74.25;100794.81;5093848;28;20392;-64
2022/04/09 05:32:40;;;;;;;22.88;6.85;;;7.70;99.90;;;7.76;73.93;100799.19;5075126;28;20054;-63
2022/04/09 05:35:10;;;;;;;20.60;7.35;;;7.60;99.90;;;7.85;73.35;100806.28;5075260;28;20052;-63
2022/04/09 05:37:45;;;;;;;33.40;7.05;;;7.70;99.90;;;7.79;73.04;100801.88;5075247;28;20044;-64
2022/04/09 05:40:18;;;;;;;25.10;6.60;;;7.70;99.90;;;7.82;73.26;100815.03;5075099;28;20379;-63
2022/04/09 05:42:47;;;;;;;22.80;6.38;;;7.70;99.90;;;7.81;73.90;100808.03;5075061;28;20381;-63
2022/04/09 05:45:17;;;;;;;29.33;7.32;;;7.70;99.90;;;7.79;73.44;100814.13;5075234;28;20134;-63
2022/04/09 05:47:49;;;;;;;29.45;7.47;;;7.70;99.90;;;7.81;74.13;100821.19;5074916;28;20052;-63
2022/04/09 05:50:24;;;;;;;24.98;7.07;;;7.70;99.90;;;7.92;74.08;100824.75;5074970;28;20075;-63
2022/04/09 05:52:53;;;;;;;25.80;6.75;;;7.80;99.90;;;7.56;74.17;100750.84;5093132;28;20048;-63
2022/04/09 05:55:23;;;;;;;20.30;7.13;;;7.80;99.90;;;7.90;74.16;100830.88;5074965;28;20044;-63
2022/04/09 05:57:53;;;;;;;;;;;7.80;99.90;;;7.93;73.58;100823.91;5075028;28;20524;-63
2022/04/09 06:00:22;;;;;;;21.60;6.53;;;7.80;99.90;;;7.99;73.53;100844.09;5092772;28;20346;-64
2022/04/09 06:03:07;;;;;;;21.30;7.18;;;7.80;99.90;;;8.15;73.33;100844.19;5074901;28;20036;-65
2022/04/09 06:05:39;;;;;;;25.45;6.80;;;8.00;99.90;;;8.12;73.94;100851.19;5074551;28;20144;-64
2022/04/09 06:08:15;;;;;;;27.67;6.90;;;8.00;99.90;;;8.10;73.71;100856.47;5074913;28;20043;-64
2022/04/09 06:10:43;;;;;;;19.33;7.30;;;8.00;99.90;;;7.49;73.80;100770.06;5074839;28;20420;-63
2022/04/09 06:13:13;;;;;;;22.23;6.40;;;7.90;99.90;;;8.06;74.35;100867.84;5074840;28;20055;-64
2022/04/09 06:15:41;;;;;;;20.45;6.25;;;7.90;99.90;;;8.04;74.96;100864.31;5074912;28;20055;-63
2022/04/09 06:18:18;;;;;;;23.38;7.40;;;7.90;99.90;;;8.05;75.03;100879.25;5092887;28;20062;-64
2022/04/09 06:20:46;;;;;;;22.92;6.53;;;7.90;99.90;;;8.10;74.76;100874.00;5092784;28;20448;-64
2022/04/09 06:23:17;;;;;;;20.20;7.95;;;7.90;99.90;;;8.11;74.52;100876.66;5075012;28;20036;-63
2022/04/09 06:25:46;;;;;;;22.60;6.50;;;8.00;99.90;;;8.05;75.33;100852.03;5074615;28;20044;-63
2022/04/09 06:28:17;;;;;;;25.10;7.57;;;8.00;99.90;;;8.34;75.57;100882.09;5074701;28;20131;-64
2022/04/09 06:30:47;;;;;;;26.13;7.70;;;8.20;99.90;;;8.28;74.10;100883.81;5074631;28;20050;-63
2022/04/09 06:33:24;;;;;;;18.33;6.65;;;8.20;99.90;;;8.08;74.64;100881.91;5074614;28;20040;-63
2022/04/09 06:35:54;;;;;;;26.27;7.78;;;8.00;99.90;;;8.10;75.17;100867.00;5074969;28;20139;-63
2022/04/09 06:38:27;;;;;;;14.75;6.45;;;8.00;99.90;;;8.10;74.66;100887.19;5074466;28;20414;-63
2022/04/09 06:40:57;;;;;;;18.83;7.43;;;8.00;99.90;;;8.05;74.90;100900.31;5074554;28;20052;-63
2022/04/09 06:43:33;;;;;;;27.02;7.53;;;7.90;99.90;;;8.14;74.56;100902.13;5074504;28;20047;-63
2022/04/09 06:46:09;;;;;;;17.33;7.05;;;8.00;99.90;;;8.21;74.17;100902.19;5074457;28;20410;-63
2022/04/09 06:48:39;;;;;;;22.30;7.30;;;8.10;99.90;;;8.35;73.58;100907.56;5092608;28;20047;-63
2022/04/09 06:51:28;;;;;;;19.10;6.25;;;8.20;99.90;;;8.58;73.26;100907.66;5091200;28;20062;-63
2022/04/09 06:54:09;;;;;;;26.80;6.80;;;8.40;99.90;;;8.88;72.13;100923.59;5074032;28;20139;-63
2022/04/09 06:56:37;;;;;;;19.60;6.53;;;8.60;99.90;;;9.13;72.99;100917.50;5073518;28;20143;-63
2022/04/09 06:59:07;;;;;;;26.15;6.72;;;8.90;99.90;;;9.05;72.76;100921.88;5073617;28;20078;-63
2022/04/09 07:01:37;;;;;;;;;;;8.90;99.90;;;9.19;72.93;100941.28;5074190;28;20105;-63
2022/04/09 07:04:08;;;;;;;20.92;6.82;;;9.00;99.90;;;9.21;72.31;100939.53;5073881;28;20284;-63
2022/04/09 07:06:36;;;;;;;24.23;7.45;;;9.00;99.90;;;9.06;71.99;100939.47;5073460;28;20044;-64
2022/04/09 07:09:05;;;;;;;20.95;7.30;;;8.90;99.90;;;8.94;72.86;100950.00;5091987;28;20147;-63
2022/04/09 07:11:34;;;;;;;18.15;7.13;;;8.80;99.90;;;8.84;73.44;100956.13;5091798;28;20067;-60
2022/04/09 07:14:02;;;;;;;23.65;6.72;;;8.70;99.90;;;8.79;74.36;100958.72;5091431;28;20444;-60
2022/04/09 07:16:31;;;;;;;21.42;7.00;;;8.60;99.90;;;8.76;75.11;100960.47;5091495;28;20048;-60
2022/04/09 07:19:01;;;;;;;19.42;6.28;;;8.60;99.90;;;8.59;75.25;100949.88;5092054;28;20139;-60
2022/04/09 07:21:31;;;;;;;26.77;7.30;;;8.50;99.90;;;8.65;74.78;100968.31;5091693;28;20044;-60
2022/04/09 07:23:59;;;;;;;19.98;6.60;;;8.50;99.90;;;8.61;75.15;100978.88;5091680;28;20466;-60
2022/04/09 07:26:27;;;;;;;16.63;5.93;;;8.50;99.90;;;8.48;76.13;100970.00;5091610;28;20539;-60
2022/04/09 07:28:56;;;;;;;22.65;6.47;;;8.40;99.90;;;8.46;76.31;100952.44;5091581;28;20055;-59
2022/04/09 07:31:24;;;;;;;21.38;6.38;;;8.40;99.90;;;8.54;77.32;100982.31;5091263;28;20071;-60
2022/04/09 07:33:53;;;;;;;17.75;5.65;;;8.40;99.90;;;8.31;76.00;101007.66;5091338;28;20047;-60
2022/04/09 07:36:21;;;;;;;5.97;4.40;;;8.20;99.90;;;7.73;73.23;101003.63;5091246;28;20044;-59
2022/04/09 07:38:51;;;;;;;5.90;4.32;;;7.80;99.90;;;7.96;71.93;100992.44;5073136;28;20075;-59
2022/04/09 07:41:19;;;;;;;6.17;4.10;;;7.90;99.90;;;7.98;72.17;100993.34;5091281;28;20338;-60
2022/04/09 07:43:48;;;;;;;4.75;3.70;;;7.90;99.90;;;8.04;71.41;100992.50;5091071;28;20048;-60
2022/04/09 07:46:16;;;;;;;6.13;4.00;;;7.90;99.90;;;7.51;70.74;100963.06;5091294;28;20397;-60
2022/04/09 07:48:45;;;;;;;6.35;4.20;;;7.80;99.90;;;7.77;70.91;100992.28;5091276;28;20044;-60
2022/04/09 07:51:13;;;;;;;8.25;4.57;;;7.70;99.90;;;7.79;71.87;100993.16;5075964;28;20079;-60
2022/04/09 07:53:42;;;;;;;11.90;5.20;;;7.70;99.90;;;7.79;73.26;100998.44;5094890;28;20069;-61
2022/04/09 07:56:11;;;;;;;12.98;5.32;;;7.60;99.90;;;7.97;74.88;100999.50;5095447;28;20048;-61
2022/04/09 07:58:40;;;;;;;21.03;6.13;;;7.70;99.90;;;7.95;76.51;100982.78;5095241;28;20086;-59
2022/04/09 08:01:08;;;;;;;20.70;6.43;;;7.90;99.90;;;8.41;77.12;101009.47;5094914;28;20309;-60
2022/04/09 08:03:37;;;;;;;21.90;6.88;;;8.20;99.90;;;8.63;78.02;101014.03;5076932;28;20490;-61
2022/04/09 08:06:06;;;;;;;23.95;6.70;;;8.40;99.90;;;8.64;77.03;101016.66;5094633;28;20051;-59
2022/04/09 08:08:35;;;;;;;19.17;7.28;;;8.60;99.90;;;8.84;76.70;101027.31;5094573;28;20408;-59
2022/04/09 08:11:04;;;;;;;16.90;6.38;;;8.70;99.90;;;8.69;76.46;100979.78;5094430;28;20076;-59
2022/04/09 08:13:35;;;;;;;21.17;7.18;;;8.80;99.90;;;9.03;75.50;101027.41;5094552;28;20044;-58
2022/04/09 08:16:04;;;;;;;21.52;6.88;;;8.90;99.90;;;9.31;74.40;101038.94;5076465;28;20052;-59
2022/04/09 08:18:33;;;;;;;18.20;6.53;;;9.10;99.90;;;9.39;73.14;101031.94;5094508;28;20040;-58
2022/04/09 08:21:04;;;;;;;25.25;7.28;;;9.20;99.90;;;9.24;72.80;101029.25;5094719;28;20381;-59
2022/04/09 08:23:32;;;;;;;20.13;6.43;;;9.20;99.90;;;9.52;72.09;101043.41;5094388;28;20066;-59
2022/04/09 08:26:02;;;;;;;20.75;6.80;;;9.40;99.90;;;9.69;71.92;101045.22;5076167;28;20044;-59
2022/04/09 08:28:32;;;;;;;15.30;5.65;;;9.50;99.90;;;9.71;70.69;101051.38;5094195;28;20126;-60
2022/04/09 08:31:02;;;;;;;26.48;6.75;;;9.50;99.90;;;9.45;70.21;101053.06;5094592;28;20054;-61
2022/04/09 08:33:30;;;;;;;21.80;7.53;;;9.40;99.90;;;9.61;70.69;101051.34;5094345;28;20444;-60
2022/04/09 08:35:59;;;;;;;20.75;7.35;;;9.40;99.90;;;9.60;70.09;101045.19;5093893;28;20332;-59
2022/04/09 08:38:27;;;;;;;23.50;6.45;;;9.50;99.90;;;9.79;71.01;101062.81;5093913;28;20074;-59
2022/04/09 08:40:56;;;;;;;21.73;6.93;;;9.60;99.90;;;9.93;70.29;101066.38;5094327;28;20036;-60
2022/04/09 08:43:25;;;;;;;18.83;6.70;;;9.70;99.90;;;9.74;70.03;101050.50;5093843;28;20070;-59
2022/04/09 08:45:54;;;;;;;17.25;6.10;;;9.70;99.90;;;9.73;69.40;101065.47;5094277;28;20040;-59
2022/04/09 08:48:24;;;;;;;21.27;6.83;;;9.60;99.90;;;9.82;70.27;101076.06;5094000;28;20055;-61
2022/04/09 08:50:53;;;;;;;13.85;5.68;;;9.70;99.90;;;9.68;68.35;101074.25;5076093;28;20294;-62
2022/04/09 08:53:41;;;;;;;17.23;5.22;;;9.60;99.90;;;9.56;67.57;101076.88;5093851;28;20105;-61
2022/04/09 08:56:11;;;;;;;17.95;5.30;;;9.50;99.90;;;9.71;67.80;101077.81;5093797;28;20114;-60
2022/04/09 08:58:39;;;;;;;18.73;5.95;;;9.50;99.90;;;9.79;65.78;101067.25;5093939;28;20409;-58
2022/04/09 09:01:07;;;;;;;19.23;6.00;;;9.60;99.90;;;9.61;65.91;101060.16;5093326;28;20117;-57
2022/04/09 09:03:37;;;;;;;13.02;5.60;;;9.60;99.90;;;10.19;66.61;101084.06;5075347;28;20040;-57
2022/04/09 09:06:27;;;;;;;18.35;6.38;;;9.90;99.90;;;10.56;65.92;101076.13;5093640;28;20036;-62
2022/04/09 09:08:57;;;;;;;13.45;5.80;;;10.40;99.90;;;10.85;66.03;101110.47;5093997;28;20101;-60
2022/04/09 09:11:27;;;;;;;15.55;6.20;;;10.70;99.90;;;10.91;65.03;101105.16;5093785;28;20052;-62
2022/04/09 09:13:58;;;;;;;21.10;6.03;;;10.80;99.90;;;10.93;64.36;101111.34;5093754;28;20145;-59
2022/04/09 09:16:28;;;;;;;20.33;6.05;;;10.80;99.90;;;10.57;65.39;101100.78;5093960;28;20130;-60
2022/04/09 09:18:59;;;;;;;;;;;10.50;99.90;;;10.77;65.88;101104.31;5094456;28;20044;-63
2022/04/09 09:21:29;;;;;;;15.00;5.47;;;10.60;99.90;;;9.98;65.17;101027.66;5093939;28;19969;-61
2022/04/09 09:24:14;;;;;;;15.07;5.97;;;10.40;99.90;;;10.16;65.17;101103.47;5075731;28;20067;-62
2022/04/09 09:26:44;;;;;;;19.02;5.45;;;10.10;99.90;;;10.14;64.70;101117.53;5076024;28;20055;-62
2022/04/09 09:29:27;;;;;;;16.20;5.47;;;10.00;99.90;;;10.20;65.88;101112.25;5093394;28;20448;-60
2022/04/09 09:31:58;;;;;;;15.13;5.70;;;10.00;99.90;;;10.14;64.83;101106.97;5093450;28;20032;-65
2022/04/09 09:34:28;;;;;;;;;;;10.00;99.90;;;9.48;65.48;101058.38;5075758;28;20070;-63
2022/04/09 09:36:57;;;;;;;18.92;6.38;;;9.80;99.90;;;9.85;66.29;101125.38;5075406;28;19969;-61
2022/04/09 09:39:27;;;;;;;10.70;5.20;;;9.70;99.90;;;10.11;64.95;101104.31;5093368;28;20070;-62
2022/04/09 09:42:03;;;;;;;9.95;4.90;;;10.00;99.90;;;10.50;63.50;101118.44;5093814;28;20135;-63
2022/04/09 09:44:34;;;;;;;18.10;5.80;;;10.30;99.90;;;10.78;63.49;101127.25;5094230;28;20130;-63
2022/04/09 09:47:08;;;;;;;15.02;5.25;;;10.60;99.90;;;10.19;63.33;101123.69;5093804;28;20055;-61
2022/04/09 09:49:53;;;;;;;15.85;5.80;;;10.20;99.90;;;10.28;64.39;101134.31;5075117;28;20051;-62
2022/04/09 09:52:26;;;;;;;16.17;5.80;;;10.10;99.90;;;10.26;64.96;101141.34;5093093;28;20419;-61
2022/04/09 09:54:59;;;;;;;16.63;5.85;;;10.10;99.90;;;10.58;64.99;101136.94;5093264;28;20048;-64
2022/04/09 09:57:30;;;;;;;11.95;5.55;;;10.40;99.90;;;9.88;63.88;101030.28;5092877;28;20036;-63
2022/04/09 10:00:02;;;;;;;14.32;5.10;;;10.40;99.90;;;10.62;62.05;101149.28;5092992;28;20432;-62
2022/04/09 10:02:38;;;;;;;14.80;5.05;;;10.50;99.90;;;10.91;61.73;101152.81;5092678;28;20438;-64
2022/04/09 10:05:09;;;;;;;14.52;5.95;;;10.70;99.90;;;11.01;61.66;101149.28;5092908;28;20459;-61
2022/04/09 10:07:39;;;;;;;16.08;5.25;;;10.90;99.90;;;10.62;61.99;101155.47;5092662;28;20109;-61
2022/04/09 10:10:09;;;;;;;14.05;5.47;;;10.60;99.90;;;10.61;62.81;101156.34;5092685;28;20349;-62
2022/04/09 10:12:40;;;;;;;14.98;5.47;;;10.50;99.90;;;10.36;62.26;101091.09;5092455;28;20036;-57
2022/04/09 10:15:10;;;;;;;16.83;5.80;;;10.60;99.90;;;10.68;61.86;101152.81;5091646;28;20478;-60
2022/04/09 10:17:40;;;;;;;14.23;5.43;;;10.60;99.90;;;10.61;60.66;101153.69;5092289;28;20044;-61
2022/04/09 10:20:11;;;;;;;11.25;4.82;;;10.50;99.90;;;10.71;61.19;101155.47;5092402;28;20158;-62
2022/04/09 10:22:44;;;;;;;14.43;5.25;;;10.60;99.90;;;11.08;60.71;101173.94;5092101;28;20056;-61
2022/04/09 10:25:16;;;;;;;16.73;4.88;;;10.80;99.90;;;11.23;60.47;101169.50;5074011;28;20379;-59
2022/04/09 10:27:52;;;;;;;14.25;5.15;;;11.00;99.90;;;11.03;60.40;101188.97;5074007;28;20397;-60
2022/04/09 10:30:24;;;;;;;19.80;6.15;;;10.90;99.90;;;11.08;60.43;101158.94;5092394;28;20044;-63
2022/04/09 10:32:55;;;;;;;10.30;4.60;;;11.00;99.90;;;11.02;60.57;101188.06;5074006;28;20573;-64
2022/04/09 10:35:37;;;;;;;14.40;5.03;;;10.90;99.90;;;10.83;60.11;101168.69;5092243;28;20048;-63
2022/04/09 10:38:23;;;;;;;15.77;5.68;;;10.80;99.90;;;10.83;60.91;101183.69;5092158;28;20060;-61